Terminal Aerodrome Forecast
Issued by NWS Louisville, KY

Home | Current Version | Previous Version | Text Only | Print | Product List | Glossary On
Versions: 1 2 3 4 5 6 7 8 9 10 11 12 13 14 15 16 17 18 19 20 21 22 23 24 25 26 27 28
000
FTUS43 KLMK 181120
TAFSDF
TAF
KSDF 181120Z 1812/1918 15004KT P6SM BKN150
     FM181600 21008KT P6SM VCSH OVC070
     FM182000 22008KT P6SM VCSH OVC035
     FM190000 VRB04KT P6SM OVC015=

USA.gov is the U.S. government's official web portal to all federal, state and local government web resources and services.